sensor_id;sensor_type;location;lat;lon;timestamp;temperature;humidity
11055;DHT22;5580;50.106;8.702;2022-11-11T00:00:37;10.80;99.90
11055;DHT22;5580;50.106;8.702;2022-11-11T00:03:03;10.80;99.90
11055;DHT22;5580;50.106;8.702;2022-11-11T00:05:31;10.80;99.90
11055;DHT22;5580;50.106;8.702;2022-11-11T00:07:57;10.80;99.90
11055;DHT22;5580;50.106;8.702;2022-11-11T00:10:25;10.70;99.90
11055;DHT22;5580;50.106;8.702;2022-11-11T00:12:51;10.80;99.90
11055;DHT22;5580;50.106;8.702;2022-11-11T00:15:16;10.70;99.90
11055;DHT22;5580;50.106;8.702;2022-11-11T00:17:42;10.70;99.90
11055;DHT22;5580;50.106;8.702;2022-11-11T00:20:26;10.60;99.90
11055;DHT22;5580;50.106;8.702;2022-11-11T00:23:20;10.50;99.90
11055;DHT22;5580;50.106;8.702;2022-11-11T00:26:04;10.50;99.90
11055;DHT22;5580;50.106;8.702;2022-11-11T00:28:30;10.40;99.90
11055;DHT22;5580;50.106;8.702;2022-11-11T00:31:04;10.40;99.90
11055;DHT22;5580;50.106;8.702;2022-11-11T00:33:29;10.50;99.90
11055;DHT22;5580;50.106;8.702;2022-11-11T00:35:55;10.40;99.90
11055;DHT22;5580;50.106;8.702;2022-11-11T00:38:21;10.40;99.90
11055;DHT22;5580;50.106;8.702;2022-11-11T00:41:05;10.50;99.90
11055;DHT22;5580;50.106;8.702;2022-11-11T00:43:31;10.50;99.90
11055;DHT22;5580;50.106;8.702;2022-11-11T00:45:57;10.50;99.90
11055;DHT22;5580;50.106;8.702;2022-11-11T00:48:42;10.40;99.90
11055;DHT22;5580;50.106;8.702;2022-11-11T00:51:27;10.30;99.90
11055;DHT22;5580;50.106;8.702;2022-11-11T00:53:53;10.20;99.90
11055;DHT22;5580;50.106;8.702;2022-11-11T00:56:19;10.20;99.90
11055;DHT22;5580;50.106;8.702;2022-11-11T00:58:45;10.20;99.90
11055;DHT22;5580;50.106;8.702;2022-11-11T01:01:11;10.10;99.90
11055;DHT22;5580;50.106;8.702;2022-11-11T01:03:36;10.10;99.90
11055;DHT22;5580;50.106;8.702;2022-11-11T01:06:03;10.00;99.90
11055;DHT22;5580;50.106;8.702;2022-11-11T01:08:30;10.00;99.90
11055;DHT22;5580;50.106;8.702;2022-11-11T01:10:56;9.90;99.90
11055;DHT22;5580;50.106;8.702;2022-11-11T01:13:27;10.00;99.90
11055;DHT22;5580;50.106;8.702;2022-11-11T01:16:07;10.10;99.90
11055;DHT22;5580;50.106;8.702;2022-11-11T01:18:33;10.00;99.90
11055;DHT22;5580;50.106;8.702;2022-11-11T01:23:37;9.90;99.90
11055;DHT22;5580;50.106;8.702;2022-11-11T01:26:15;9.80;99.90
11055;DHT22;5580;50.106;8.702;2022-11-11T01:28:41;9.80;99.90
11055;DHT22;5580;50.106;8.702;2022-11-11T01:31:09;9.80;99.90
11055;DHT22;5580;50.106;8.702;2022-11-11T01:33:36;9.80;99.90
11055;DHT22;5580;50.106;8.702;2022-11-11T01:36:08;9.80;99.90
11055;DHT22;5580;50.106;8.702;2022-11-11T01:38:34;9.80;99.90
11055;DHT22;5580;50.106;8.702;2022-11-11T01:40:59;9.80;99.90
11055;DHT22;5580;50.106;8.702;2022-11-11T01:43:25;9.80;99.90
11055;DHT22;5580;50.106;8.702;2022-11-11T01:48:34;9.80;99.90
11055;DHT22;5580;50.106;8.702;2022-11-11T01:51:35;9.80;99.90
11055;DHT22;5580;50.106;8.702;2022-11-11T01:54:07;9.80;99.90
11055;DHT22;5580;50.106;8.702;2022-11-11T01:56:35;9.80;99.90
11055;DHT22;5580;50.106;8.702;2022-11-11T01:59:06;9.70;99.90
11055;DHT22;5580;50.106;8.702;2022-11-11T02:01:34;9.70;99.90
11055;DHT22;5580;50.106;8.702;2022-11-11T02:04:01;9.70;99.90
11055;DHT22;5580;50.106;8.702;2022-11-11T02:06:48;9.70;99.90
11055;DHT22;5580;50.106;8.702;2022-11-11T02:09:15;9.60;99.90
11055;DHT22;5580;50.106;8.702;2022-11-11T02:11:42;9.50;99.90
11055;DHT22;5580;50.106;8.702;2022-11-11T02:14:27;9.50;99.90
11055;DHT22;5580;50.106;8.702;2022-11-11T02:17:03;9.50;99.90
11055;DHT22;5580;50.106;8.702;2022-11-11T02:22:27;9.60;99.90
11055;DHT22;5580;50.106;8.702;2022-11-11T02:24:55;9.50;99.90
11055;DHT22;5580;50.106;8.702;2022-11-11T02:27:22;9.40;99.90
11055;DHT22;5580;50.106;8.702;2022-11-11T02:29:51;9.40;99.90
11055;DHT22;5580;50.106;8.702;2022-11-11T02:32:17;9.30;99.90
11055;DHT22;5580;50.106;8.702;2022-11-11T02:34:43;9.40;99.90
11055;DHT22;5580;50.106;8.702;2022-11-11T02:37:09;9.40;99.90
11055;DHT22;5580;50.106;8.702;2022-11-11T02:39:41;9.50;99.90
11055;DHT22;5580;50.106;8.702;2022-11-11T02:42:09;9.50;99.90
11055;DHT22;5580;50.106;8.702;2022-11-11T02:44:36;9.50;99.90
11055;DHT22;5580;50.106;8.702;2022-11-11T02:47:04;9.50;99.90
11055;DHT22;5580;50.106;8.702;2022-11-11T02:49:30;9.50;99.90
11055;DHT22;5580;50.106;8.702;2022-11-11T02:51:56;9.50;99.90
11055;DHT22;5580;50.106;8.702;2022-11-11T02:54:22;9.50;99.90
11055;DHT22;5580;50.106;8.702;2022-11-11T02:56:47;9.50;99.90
11055;DHT22;5580;50.106;8.702;2022-11-11T02:59:32;9.50;99.90
11055;DHT22;5580;50.106;8.702;2022-11-11T03:01:57;9.50;99.90
11055;DHT22;5580;50.106;8.702;2022-11-11T03:04:23;9.50;99.90
11055;DHT22;5580;50.106;8.702;2022-11-11T03:06:49;9.60;99.90
11055;DHT22;5580;50.106;8.702;2022-11-11T03:09:14;9.60;99.90
11055;DHT22;5580;50.106;8.702;2022-11-11T03:11:40;9.60;99.90
11055;DHT22;5580;50.106;8.702;2022-11-11T03:14:06;9.60;99.90
11055;DHT22;5580;50.106;8.702;2022-11-11T03:16:33;9.60;99.90
11055;DHT22;5580;50.106;8.702;2022-11-11T03:19:17;9.60;99.90
11055;DHT22;5580;50.106;8.702;2022-11-11T03:21:43;9.50;99.90
11055;DHT22;5580;50.106;8.702;2022-11-11T03:24:09;9.50;99.90
11055;DHT22;5580;50.106;8.702;2022-11-11T03:26:35;9.50;99.90
11055;DHT22;5580;50.106;8.702;2022-11-11T03:29:01;9.50;99.90
11055;DHT22;5580;50.106;8.702;2022-11-11T03:31:26;9.50;99.90
11055;DHT22;5580;50.106;8.702;2022-11-11T03:33:52;9.50;99.90
11055;DHT22;5580;50.106;8.702;2022-11-11T03:36:17;9.50;99.90
11055;DHT22;5580;50.106;8.702;2022-11-11T03:38:43;9.50;99.90
11055;DHT22;5580;50.106;8.702;2022-11-11T03:41:09;9.50;99.90
11055;DHT22;5580;50.106;8.702;2022-11-11T03:43:34;9.40;99.90
11055;DHT22;5580;50.106;8.702;2022-11-11T03:46:01;9.40;99.90
11055;DHT22;5580;50.106;8.702;2022-11-11T03:48:29;9.40;99.90
11055;DHT22;5580;50.106;8.702;2022-11-11T03:50:55;9.40;99.90
11055;DHT22;5580;50.106;8.702;2022-11-11T03:53:21;9.40;99.90
11055;DHT22;5580;50.106;8.702;2022-11-11T03:55:48;9.20;99.90
11055;DHT22;5580;50.106;8.702;2022-11-11T03:58:15;9.10;99.90
11055;DHT22;5580;50.106;8.702;2022-11-11T04:00:43;9.10;99.90
11055;DHT22;5580;50.106;8.702;2022-11-11T04:05:56;9.20;99.90
11055;DHT22;5580;50.106;8.702;2022-11-11T04:08:41;9.20;99.90
11055;DHT22;5580;50.106;8.702;2022-11-11T04:11:35;9.20;99.90
11055;DHT22;5580;50.106;8.702;2022-11-11T04:14:04;9.20;99.90
11055;DHT22;5580;50.106;8.702;2022-11-11T04:16:49;9.10;99.90
11055;DHT22;5580;50.106;8.702;2022-11-11T04:19:15;9.10;99.90
11055;DHT22;5580;50.106;8.702;2022-11-11T04:21:59;9.10;99.90
11055;DHT22;5580;50.106;8.702;2022-11-11T04:24:24;9.10;99.90
11055;DHT22;5580;50.106;8.702;2022-11-11T04:27:11;9.00;99.90
11055;DHT22;5580;50.106;8.702;2022-11-11T04:29:37;9.00;99.90
11055;DHT22;5580;50.106;8.702;2022-11-11T04:32:06;8.90;99.90
11055;DHT22;5580;50.106;8.702;2022-11-11T04:34:54;9.00;99.90
11055;DHT22;5580;50.106;8.702;2022-11-11T04:37:21;8.90;99.90
11055;DHT22;5580;50.106;8.702;2022-11-11T04:39:47;8.90;99.90
11055;DHT22;5580;50.106;8.702;2022-11-11T04:42:32;8.90;99.90
11055;DHT22;5580;50.106;8.702;2022-11-11T04:44:59;8.90;99.90
11055;DHT22;5580;50.106;8.702;2022-11-11T04:48:00;8.80;99.90
11055;DHT22;5580;50.106;8.702;2022-11-11T04:50:32;8.70;99.90
11055;DHT22;5580;50.106;8.702;2022-11-11T04:52:58;8.70;99.90
11055;DHT22;5580;50.106;8.702;2022-11-11T04:55:24;8.70;99.90
11055;DHT22;5580;50.106;8.702;2022-11-11T04:58:08;8.70;99.90
11055;DHT22;5580;50.106;8.702;2022-11-11T05:00:34;8.70;99.90
11055;DHT22;5580;50.106;8.702;2022-11-11T05:03:01;8.80;99.90
11055;DHT22;5580;50.106;8.702;2022-11-11T05:08:32;8.80;99.90
11055;DHT22;5580;50.106;8.702;2022-11-11T05:11:17;8.80;99.90
11055;DHT22;5580;50.106;8.702;2022-11-11T05:13:44;8.80;99.90
11055;DHT22;5580;50.106;8.702;2022-11-11T05:16:31;8.80;99.90
11055;DHT22;5580;50.106;8.702;2022-11-11T05:19:16;8.80;99.90
11055;DHT22;5580;50.106;8.702;2022-11-11T05:22:14;8.70;99.90
11055;DHT22;5580;50.106;8.702;2022-11-11T05:24:40;8.70;99.90
11055;DHT22;5580;50.106;8.702;2022-11-11T05:27:25;8.60;99.90
11055;DHT22;5580;50.106;8.702;2022-11-11T05:29:51;8.50;99.90
11055;DHT22;5580;50.106;8.702;2022-11-11T05:32:18;8.40;99.90
11055;DHT22;5580;50.106;8.702;2022-11-11T05:34:45;8.40;99.90
11055;DHT22;5580;50.106;8.702;2022-11-11T05:37:11;8.50;99.90
11055;DHT22;5580;50.106;8.702;2022-11-11T05:39:37;8.40;99.90
11055;DHT22;5580;50.106;8.702;2022-11-11T05:42:03;8.30;99.90
11055;DHT22;5580;50.106;8.702;2022-11-11T05:44:28;8.30;99.90
11055;DHT22;5580;50.106;8.702;2022-11-11T05:46:54;8.30;99.90
11055;DHT22;5580;50.106;8.702;2022-11-11T05:49:20;8.30;99.90
11055;DHT22;5580;50.106;8.702;2022-11-11T05:51:46;8.30;99.90
11055;DHT22;5580;50.106;8.702;2022-11-11T05:54:12;8.20;99.90
11055;DHT22;5580;50.106;8.702;2022-11-11T05:56:39;8.30;99.90
11055;DHT22;5580;50.106;8.702;2022-11-11T05:59:06;8.20;99.90
11055;DHT22;5580;50.106;8.702;2022-11-11T06:01:31;8.20;99.90
11055;DHT22;5580;50.106;8.702;2022-11-11T06:03:57;8.10;99.90
11055;DHT22;5580;50.106;8.702;2022-11-11T06:06:23;8.10;99.90
11055;DHT22;5580;50.106;8.702;2022-11-11T06:08:49;8.20;99.90
11055;DHT22;5580;50.106;8.702;2022-11-11T06:11:14;8.10;99.90
11055;DHT22;5580;50.106;8.702;2022-11-11T06:13:40;8.10;99.90
11055;DHT22;5580;50.106;8.702;2022-11-11T06:16:06;8.00;99.90
11055;DHT22;5580;50.106;8.702;2022-11-11T06:18:32;8.00;99.90
11055;DHT22;5580;50.106;8.702;2022-11-11T06:20:59;8.00;99.90
11055;DHT22;5580;50.106;8.702;2022-11-11T06:23:26;8.00;99.90
11055;DHT22;5580;50.106;8.702;2022-11-11T06:25:52;8.00;99.90
11055;DHT22;5580;50.106;8.702;2022-11-11T06:28:37;8.00;99.90
11055;DHT22;5580;50.106;8.702;2022-11-11T06:31:03;8.00;99.90
11055;DHT22;5580;50.106;8.702;2022-11-11T06:33:29;8.00;99.90
11055;DHT22;5580;50.106;8.702;2022-11-11T06:35:55;8.00;99.90
11055;DHT22;5580;50.106;8.702;2022-11-11T06:38:21;8.00;99.90
11055;DHT22;5580;50.106;8.702;2022-11-11T06:40:47;8.00;99.90
11055;DHT22;5580;50.106;8.702;2022-11-11T06:43:12;8.00;99.90
11055;DHT22;5580;50.106;8.702;2022-11-11T06:45:38;7.90;99.90
11055;DHT22;5580;50.106;8.702;2022-11-11T06:48:04;7.90;99.90
11055;DHT22;5580;50.106;8.702;2022-11-11T06:50:33;7.90;99.90
11055;DHT22;5580;50.106;8.702;2022-11-11T06:53:10;7.90;99.90
11055;DHT22;5580;50.106;8.702;2022-11-11T06:55:37;7.90;99.90
11055;DHT22;5580;50.106;8.702;2022-11-11T06:58:09;7.80;99.90
11055;DHT22;5580;50.106;8.702;2022-11-11T07:00:36;7.90;99.90
11055;DHT22;5580;50.106;8.702;2022-11-11T07:03:02;7.90;99.90
11055;DHT22;5580;50.106;8.702;2022-11-11T07:05:28;8.00;99.90
11055;DHT22;5580;50.106;8.702;2022-11-11T07:07:55;8.00;99.90
11055;DHT22;5580;50.106;8.702;2022-11-11T07:10:21;8.00;99.90
11055;DHT22;5580;50.106;8.702;2022-11-11T07:12:46;8.10;99.90
11055;DHT22;5580;50.106;8.702;2022-11-11T07:15:12;8.00;99.90
11055;DHT22;5580;50.106;8.702;2022-11-11T07:17:37;8.00;99.90
11055;DHT22;5580;50.106;8.702;2022-11-11T07:20:04;8.00;99.90
11055;DHT22;5580;50.106;8.702;2022-11-11T07:22:30;8.00;99.90
11055;DHT22;5580;50.106;8.702;2022-11-11T07:24:55;8.00;99.90
11055;DHT22;5580;50.106;8.702;2022-11-11T07:27:21;8.00;99.90
11055;DHT22;5580;50.106;8.702;2022-11-11T07:29:46;8.00;99.90
11055;DHT22;5580;50.106;8.702;2022-11-11T07:32:13;8.10;99.90
11055;DHT22;5580;50.106;8.702;2022-11-11T07:34:39;8.00;99.90
11055;DHT22;5580;50.106;8.702;2022-11-11T07:37:05;8.00;99.90
11055;DHT22;5580;50.106;8.702;2022-11-11T07:39:30;8.00;99.90
11055;DHT22;5580;50.106;8.702;2022-11-11T07:41:56;8.00;99.90
11055;DHT22;5580;50.106;8.702;2022-11-11T07:44:21;8.10;99.90
11055;DHT22;5580;50.106;8.702;2022-11-11T07:46:47;8.10;99.90
11055;DHT22;5580;50.106;8.702;2022-11-11T07:49:12;8.10;99.90
11055;DHT22;5580;50.106;8.702;2022-11-11T07:51:38;8.20;99.90
11055;DHT22;5580;50.106;8.702;2022-11-11T07:54:04;8.20;99.90
11055;DHT22;5580;50.106;8.702;2022-11-11T07:56:29;8.30;99.90
11055;DHT22;5580;50.106;8.702;2022-11-11T07:58:55;8.30;99.90
11055;DHT22;5580;50.106;8.702;2022-11-11T08:01:20;8.30;99.90
11055;DHT22;5580;50.106;8.702;2022-11-11T08:03:46;8.30;99.90
11055;DHT22;5580;50.106;8.702;2022-11-11T08:06:16;8.40;99.90
11055;DHT22;5580;50.106;8.702;2022-11-11T08:08:42;8.40;99.90
11055;DHT22;5580;50.106;8.702;2022-11-11T08:11:08;8.50;99.90
11055;DHT22;5580;50.106;8.702;2022-11-11T08:13:33;8.50;99.90
11055;DHT22;5580;50.106;8.702;2022-11-11T08:16:12;8.50;99.90
11055;DHT22;5580;50.106;8.702;2022-11-11T08:18:38;8.50;99.90
11055;DHT22;5580;50.106;8.702;2022-11-11T08:21:04;8.60;99.90
11055;DHT22;5580;50.106;8.702;2022-11-11T08:23:31;8.50;99.90
11055;DHT22;5580;50.106;8.702;2022-11-11T08:26:00;8.50;99.90
11055;DHT22;5580;50.106;8.702;2022-11-11T08:28:28;8.60;99.90
11055;DHT22;5580;50.106;8.702;2022-11-11T08:30:54;8.70;99.90
11055;DHT22;5580;50.106;8.702;2022-11-11T08:33:20;8.80;99.90
11055;DHT22;5580;50.106;8.702;2022-11-11T08:35:46;8.90;99.90
11055;DHT22;5580;50.106;8.702;2022-11-11T08:38:12;8.90;99.90
11055;DHT22;5580;50.106;8.702;2022-11-11T08:40:40;8.90;99.90
11055;DHT22;5580;50.106;8.702;2022-11-11T08:43:06;8.90;99.90
11055;DHT22;5580;50.106;8.702;2022-11-11T08:45:32;8.90;99.90
11055;DHT22;5580;50.106;8.702;2022-11-11T08:47:58;8.80;99.90
11055;DHT22;5580;50.106;8.702;2022-11-11T08:50:23;8.90;99.90
11055;DHT22;5580;50.106;8.702;2022-11-11T08:52:50;8.90;99.90
11055;DHT22;5580;50.106;8.702;2022-11-11T08:55:16;8.90;99.90
11055;DHT22;5580;50.106;8.702;2022-11-11T08:57:42;8.90;99.90
11055;DHT22;5580;50.106;8.702;2022-11-11T09:00:09;9.00;99.90
11055;DHT22;5580;50.106;8.702;2022-11-11T09:02:35;9.00;99.90
11055;DHT22;5580;50.106;8.702;2022-11-11T09:05:01;9.00;99.90
11055;DHT22;5580;50.106;8.702;2022-11-11T09:07:26;9.00;99.90
11055;DHT22;5580;50.106;8.702;2022-11-11T09:09:52;9.00;99.90
11055;DHT22;5580;50.106;8.702;2022-11-11T09:12:18;9.00;99.90
11055;DHT22;5580;50.106;8.702;2022-11-11T09:14:44;9.00;99.90
11055;DHT22;5580;50.106;8.702;2022-11-11T09:17:10;9.00;99.90
11055;DHT22;5580;50.106;8.702;2022-11-11T09:19:35;9.00;99.90
11055;DHT22;5580;50.106;8.702;2022-11-11T09:22:01;9.00;99.90
11055;DHT22;5580;50.106;8.702;2022-11-11T09:24:27;9.00;99.90
11055;DHT22;5580;50.106;8.702;2022-11-11T09:26:52;9.00;99.90
11055;DHT22;5580;50.106;8.702;2022-11-11T09:29:18;9.00;99.90
11055;DHT22;5580;50.106;8.702;2022-11-11T09:31:45;9.10;99.90
11055;DHT22;5580;50.106;8.702;2022-11-11T09:34:10;9.10;99.90
11055;DHT22;5580;50.106;8.702;2022-11-11T09:36:36;9.10;99.90
11055;DHT22;5580;50.106;8.702;2022-11-11T09:39:02;9.00;99.90
11055;DHT22;5580;50.106;8.702;2022-11-11T09:50:03;9.10;99.90
11055;DHT22;5580;50.106;8.702;2022-11-11T09:55:30;9.20;99.90
11055;DHT22;5580;50.106;8.702;2022-11-11T09:58:04;9.20;99.90
11055;DHT22;5580;50.106;8.702;2022-11-11T10:00:34;9.20;99.90
11055;DHT22;5580;50.106;8.702;2022-11-11T10:03:11;9.20;99.90
11055;DHT22;5580;50.106;8.702;2022-11-11T10:06:02;9.20;99.90
11055;DHT22;5580;50.106;8.702;2022-11-11T10:08:57;9.20;99.90
11055;DHT22;5580;50.106;8.702;2022-11-11T10:11:46;9.30;99.90
11055;DHT22;5580;50.106;8.702;2022-11-11T10:14:13;9.20;99.90
11055;DHT22;5580;50.106;8.702;2022-11-11T10:20:19;9.30;99.90
11055;DHT22;5580;50.106;8.702;2022-11-11T10:25:34;9.20;99.90
11055;DHT22;5580;50.106;8.702;2022-11-11T10:28:00;9.20;99.90
11055;DHT22;5580;50.106;8.702;2022-11-11T10:30:31;9.20;99.90
11055;DHT22;5580;50.106;8.702;2022-11-11T10:33:04;9.20;99.90
11055;DHT22;5580;50.106;8.702;2022-11-11T10:35:32;9.30;99.90
11055;DHT22;5580;50.106;8.702;2022-11-11T10:43:20;9.30;99.90
11055;DHT22;5580;50.106;8.702;2022-11-11T10:46:05;9.30;99.90
11055;DHT22;5580;50.106;8.702;2022-11-11T10:49:05;9.30;99.90
11055;DHT22;5580;50.106;8.702;2022-11-11T10:51:30;9.30;99.90
11055;DHT22;5580;50.106;8.702;2022-11-11T10:54:08;9.30;99.90
11055;DHT22;5580;50.106;8.702;2022-11-11T10:56:44;9.40;99.90
11055;DHT22;5580;50.106;8.702;2022-11-11T11:00:03;9.40;99.90
11055;DHT22;5580;50.106;8.702;2022-11-11T11:02:08;9.50;99.90
11055;DHT22;5580;50.106;8.702;2022-11-11T11:07:37;9.60;99.90
11055;DHT22;5580;50.106;8.702;2022-11-11T11:10:23;9.60;99.90
11055;DHT22;5580;50.106;8.702;2022-11-11T11:15:21;9.60;99.90
11055;DHT22;5580;50.106;8.702;2022-11-11T11:17:57;9.60;99.90
11055;DHT22;5580;50.106;8.702;2022-11-11T11:20:24;9.50;99.90
11055;DHT22;5580;50.106;8.702;2022-11-11T11:22:53;9.50;99.90
11055;DHT22;5580;50.106;8.702;2022-11-11T11:25:22;9.60;99.90
11055;DHT22;5580;50.106;8.702;2022-11-11T11:27:49;9.70;99.90
11055;DHT22;5580;50.106;8.702;2022-11-11T11:30:21;9.70;99.90
11055;DHT22;5580;50.106;8.702;2022-11-11T11:33:00;9.80;99.90
11055;DHT22;5580;50.106;8.702;2022-11-11T11:37:57;9.70;99.90
11055;DHT22;5580;50.106;8.702;2022-11-11T11:40:23;9.60;99.90
11055;DHT22;5580;50.106;8.702;2022-11-11T11:42:49;9.60;99.90
11055;DHT22;5580;50.106;8.702;2022-11-11T11:47:49;9.70;99.90
11055;DHT22;5580;50.106;8.702;2022-11-11T11:55:41;9.90;99.90
11055;DHT22;5580;50.106;8.702;2022-11-11T11:58:32;9.90;99.90
11055;DHT22;5580;50.106;8.702;2022-11-11T12:01:14;9.90;99.90
11055;DHT22;5580;50.106;8.702;2022-11-11T12:04:27;9.90;99.90
11055;DHT22;5580;50.106;8.702;2022-11-11T12:07:10;9.90;99.90
11055;DHT22;5580;50.106;8.702;2022-11-11T12:21:01;9.90;99.90
11055;DHT22;5580;50.106;8.702;2022-11-11T12:23:53;9.90;99.90
11055;DHT22;5580;50.106;8.702;2022-11-11T12:26:45;9.90;99.90
11055;DHT22;5580;50.106;8.702;2022-11-11T12:56:50;10.00;99.90
11055;DHT22;5580;50.106;8.702;2022-11-11T13:10:27;10.30;99.90
11055;DHT22;5580;50.106;8.702;2022-11-11T13:15:41;10.30;99.90
11055;DHT22;5580;50.106;8.702;2022-11-11T13:18:19;10.30;99.90
11055;DHT22;5580;50.106;8.702;2022-11-11T13:21:01;10.40;99.90
11055;DHT22;5580;50.106;8.702;2022-11-11T13:23:28;10.40;99.90
11055;DHT22;5580;50.106;8.702;2022-11-11T13:26:03;10.40;99.90
11055;DHT22;5580;50.106;8.702;2022-11-11T13:28:44;10.30;99.90
11055;DHT22;5580;50.106;8.702;2022-11-11T13:31:34;10.30;99.90
11055;DHT22;5580;50.106;8.702;2022-11-11T13:34:12;10.30;99.90
11055;DHT22;5580;50.106;8.702;2022-11-11T13:36:51;10.20;99.90
11055;DHT22;5580;50.106;8.702;2022-11-11T13:39:30;10.00;99.90
11055;DHT22;5580;50.106;8.702;2022-11-11T13:41:57;10.00;99.90
11055;DHT22;5580;50.106;8.702;2022-11-11T13:44:27;10.00;99.90
11055;DHT22;5580;50.106;8.702;2022-11-11T13:47:03;10.10;99.90
11055;DHT22;5580;50.106;8.702;2022-11-11T13:49:36;10.10;99.90
11055;DHT22;5580;50.106;8.702;2022-11-11T13:52:19;10.20;99.90
11055;DHT22;5580;50.106;8.702;2022-11-11T13:55:00;10.30;99.90
11055;DHT22;5580;50.106;8.702;2022-11-11T13:57:27;10.20;99.90
11055;DHT22;5580;50.106;8.702;2022-11-11T14:00:23;10.30;99.90
11055;DHT22;5580;50.106;8.702;2022-11-11T14:13:50;10.40;99.90
11055;DHT22;5580;50.106;8.702;2022-11-11T14:21:58;10.50;99.90
11055;DHT22;5580;50.106;8.702;2022-11-11T14:24:44;10.40;99.90
11055;DHT22;5580;50.106;8.702;2022-11-11T14:29:55;10.40;99.90
11055;DHT22;5580;50.106;8.702;2022-11-11T14:32:39;10.50;99.90
11055;DHT22;5580;50.106;8.702;2022-11-11T14:40:31;10.50;99.90
11055;DHT22;5580;50.106;8.702;2022-11-11T14:42:58;10.60;99.90
11055;DHT22;5580;50.106;8.702;2022-11-11T14:47:56;10.60;99.90
11055;DHT22;5580;50.106;8.702;2022-11-11T14:53:15;10.60;99.90
11055;DHT22;5580;50.106;8.702;2022-11-11T14:55:42;10.60;99.90
11055;DHT22;5580;50.106;8.702;2022-11-11T14:58:14;10.50;99.90
11055;DHT22;5580;50.106;8.702;2022-11-11T15:03:32;10.50;99.90
11055;DHT22;5580;50.106;8.702;2022-11-11T15:06:17;10.50;99.90
11055;DHT22;5580;50.106;8.702;2022-11-11T15:09:13;10.50;99.90
11055;DHT22;5580;50.106;8.702;2022-11-11T15:11:50;10.40;99.90
11055;DHT22;5580;50.106;8.702;2022-11-11T15:25:30;10.30;99.90
11055;DHT22;5580;50.106;8.702;2022-11-11T15:30:59;10.30;99.90
11055;DHT22;5580;50.106;8.702;2022-11-11T15:33:41;10.40;99.90
11055;DHT22;5580;50.106;8.702;2022-11-11T15:38:58;10.30;99.90
11055;DHT22;5580;50.106;8.702;2022-11-11T15:41:33;10.30;99.90
11055;DHT22;5580;50.106;8.702;2022-11-11T15:44:00;10.30;99.90
11055;DHT22;5580;50.106;8.702;2022-11-11T15:46:28;10.30;99.90
11055;DHT22;5580;50.106;8.702;2022-11-11T15:48:54;10.30;99.90
11055;DHT22;5580;50.106;8.702;2022-11-11T15:53:46;10.30;99.90
11055;DHT22;5580;50.106;8.702;2022-11-11T15:56:28;10.30;99.90
11055;DHT22;5580;50.106;8.702;2022-11-11T15:58:54;10.30;99.90
11055;DHT22;5580;50.106;8.702;2022-11-11T16:01:25;10.20;99.90
11055;DHT22;5580;50.106;8.702;2022-11-11T16:03:53;10.20;99.90
11055;DHT22;5580;50.106;8.702;2022-11-11T16:06:19;10.10;99.90
11055;DHT22;5580;50.106;8.702;2022-11-11T16:08:47;10.20;99.90
11055;DHT22;5580;50.106;8.702;2022-11-11T16:11:15;10.20;99.90
11055;DHT22;5580;50.106;8.702;2022-11-11T16:16:27;10.10;99.90
11055;DHT22;5580;50.106;8.702;2022-11-11T16:19:01;10.10;99.90
11055;DHT22;5580;50.106;8.702;2022-11-11T16:21:46;10.10;99.90
11055;DHT22;5580;50.106;8.702;2022-11-11T16:26:48;10.10;99.90
11055;DHT22;5580;50.106;8.702;2022-11-11T16:29:15;10.10;99.90
11055;DHT22;5580;50.106;8.702;2022-11-11T16:31:42;10.10;99.90
11055;DHT22;5580;50.106;8.702;2022-11-11T16:34:35;10.10;99.90
11055;DHT22;5580;50.106;8.702;2022-11-11T16:37:07;10.20;99.90
11055;DHT22;5580;50.106;8.702;2022-11-11T16:39:34;10.20;99.90
11055;DHT22;5580;50.106;8.702;2022-11-11T16:42:01;10.20;99.90
11055;DHT22;5580;50.106;8.702;2022-11-11T16:44:31;10.20;99.90
11055;DHT22;5580;50.106;8.702;2022-11-11T16:46:58;10.20;99.90
11055;DHT22;5580;50.106;8.702;2022-11-11T16:49:37;10.20;99.90
11055;DHT22;5580;50.106;8.702;2022-11-11T16:52:11;10.20;99.90
11055;DHT22;5580;50.106;8.702;2022-11-11T16:54:46;10.20;99.90
11055;DHT22;5580;50.106;8.702;2022-11-11T16:57:17;10.20;99.90
11055;DHT22;5580;50.106;8.702;2022-11-11T16:59:46;10.20;99.90
11055;DHT22;5580;50.106;8.702;2022-11-11T17:02:17;10.20;99.90
11055;DHT22;5580;50.106;8.702;2022-11-11T17:04:54;10.20;99.90
11055;DHT22;5580;50.106;8.702;2022-11-11T17:12:37;10.10;99.90
11055;DHT22;5580;50.106;8.702;2022-11-11T17:15:04;10.10;99.90
11055;DHT22;5580;50.106;8.702;2022-11-11T17:17:30;10.10;99.90
11055;DHT22;5580;50.106;8.702;2022-11-11T17:19:59;10.10;99.90
11055;DHT22;5580;50.106;8.702;2022-11-11T17:22:25;10.10;99.90
11055;DHT22;5580;50.106;8.702;2022-11-11T17:24:51;10.10;99.90
11055;DHT22;5580;50.106;8.702;2022-11-11T17:27:16;10.10;99.90
11055;DHT22;5580;50.106;8.702;2022-11-11T17:29:42;10.10;99.90
11055;DHT22;5580;50.106;8.702;2022-11-11T17:32:08;10.10;99.90
11055;DHT22;5580;50.106;8.702;2022-11-11T17:34:34;10.10;99.90
11055;DHT22;5580;50.106;8.702;2022-11-11T17:37:00;10.10;99.90
11055;DHT22;5580;50.106;8.702;2022-11-11T17:39:25;10.10;99.90
11055;DHT22;5580;50.106;8.702;2022-11-11T17:41:51;10.10;99.90
11055;DHT22;5580;50.106;8.702;2022-11-11T17:44:16;10.10;99.90
11055;DHT22;5580;50.106;8.702;2022-11-11T17:46:42;10.00;99.90
11055;DHT22;5580;50.106;8.702;2022-11-11T17:49:08;10.00;99.90
11055;DHT22;5580;50.106;8.702;2022-11-11T17:51:34;10.00;99.90
11055;DHT22;5580;50.106;8.702;2022-11-11T17:54:00;9.90;99.90
11055;DHT22;5580;50.106;8.702;2022-11-11T17:56:25;9.90;99.90
11055;DHT22;5580;50.106;8.702;2022-11-11T17:58:52;9.90;99.90
11055;DHT22;5580;50.106;8.702;2022-11-11T18:01:18;9.90;99.90
11055;DHT22;5580;50.106;8.702;2022-11-11T18:03:43;9.90;99.90
11055;DHT22;5580;50.106;8.702;2022-11-11T18:06:09;9.80;99.90
11055;DHT22;5580;50.106;8.702;2022-11-11T18:08:35;9.80;99.90
11055;DHT22;5580;50.106;8.702;2022-11-11T18:11:03;9.90;99.90
11055;DHT22;5580;50.106;8.702;2022-11-11T18:13:29;9.80;99.90
11055;DHT22;5580;50.106;8.702;2022-11-11T18:15:55;9.80;99.90
11055;DHT22;5580;50.106;8.702;2022-11-11T18:18:23;9.80;99.90
11055;DHT22;5580;50.106;8.702;2022-11-11T18:20:49;9.80;99.90
11055;DHT22;5580;50.106;8.702;2022-11-11T18:23:15;9.80;99.90
11055;DHT22;5580;50.106;8.702;2022-11-11T18:25:41;9.80;99.90
11055;DHT22;5580;50.106;8.702;2022-11-11T18:28:07;9.80;99.90
11055;DHT22;5580;50.106;8.702;2022-11-11T18:30:33;9.70;99.90
11055;DHT22;5580;50.106;8.702;2022-11-11T18:32:58;9.80;99.90
11055;DHT22;5580;50.106;8.702;2022-11-11T18:35:24;9.90;99.90
11055;DHT22;5580;50.106;8.702;2022-11-11T18:37:50;10.00;99.90
11055;DHT22;5580;50.106;8.702;2022-11-11T18:40:15;9.90;99.90
11055;DHT22;5580;50.106;8.702;2022-11-11T18:42:41;9.80;99.90
11055;DHT22;5580;50.106;8.702;2022-11-11T18:45:07;9.80;99.90
11055;DHT22;5580;50.106;8.702;2022-11-11T18:47:32;9.80;99.90
11055;DHT22;5580;50.106;8.702;2022-11-11T18:49:58;9.70;99.90
11055;DHT22;5580;50.106;8.702;2022-11-11T18:52:23;9.70;99.90
11055;DHT22;5580;50.106;8.702;2022-11-11T18:54:49;9.70;99.90
11055;DHT22;5580;50.106;8.702;2022-11-11T18:57:15;9.70;99.90
11055;DHT22;5580;50.106;8.702;2022-11-11T18:59:40;9.70;99.90
11055;DHT22;5580;50.106;8.702;2022-11-11T19:02:07;9.60;99.90
11055;DHT22;5580;50.106;8.702;2022-11-11T19:04:33;9.60;99.90